Time;durP1;ratioP1;P1;durP2;ratioP2;P2;SDS_P1;SDS_P2;PMS_P1;PMS_P2;Temp;Humidity;BMP_temperature;BMP_pressure;BME280_temperature;BME280_humidity;BME280_pressure;Samples;Min_cycle;Max_cycle;Signal;HPM_P1;HPM_P2
2022/03/07 00:02:14;;;;;;;18.42;15.43;;;;;;;;;;4992784;28;20026;-78
2022/03/07 00:04:41;;;;;;;19.45;15.77;;;;;;;;;;4992902;28;20030;-78
2022/03/07 00:07:14;;;;;;;20.00;16.35;;;;;;;;;;4992516;28;20034;-79
2022/03/07 00:09:40;;;;;;;20.48;17.40;;;;;;;;;;4975268;28;20018;-78
2022/03/07 00:12:06;;;;;;;22.80;17.73;;;;;;;;;;4992604;28;20490;-79
2022/03/07 00:14:32;;;;;;;21.20;18.20;;;;;;;;;;4996584;28;20038;-78
2022/03/07 00:16:58;;;;;;;23.27;19.48;;;;;;;;;;5012160;28;20026;-78
2022/03/07 00:19:29;;;;;;;26.13;21.77;;;;;;;;;;5012261;28;20022;-79
2022/03/07 00:21:55;;;;;;;27.40;21.13;;;;;;;;;;4994367;28;20026;-79
2022/03/07 00:24:23;;;;;;;25.20;20.52;;;;;;;;;;5012075;28;20033;-79
2022/03/07 00:26:50;;;;;;;24.55;20.00;;;;;;;;;;5011967;28;20114;-78
2022/03/07 00:29:16;;;;;;;26.05;21.33;;;;;;;;;;5012123;28;20030;-78
2022/03/07 00:31:42;;;;;;;24.50;21.08;;;;;;;;;;5012100;28;20030;-78
2022/03/07 00:34:09;;;;;;;24.80;21.35;;;;;;;;;;4994369;28;20516;-79
2022/03/07 00:36:35;;;;;;;27.48;22.40;;;;;;;;;;5012015;28;20038;-78
2022/03/07 00:39:02;;;;;;;29.25;23.48;;;;;;;;;;5011950;28;20045;-78
2022/03/07 00:41:28;;;;;;;25.95;21.45;;;;;;;;;;5012294;28;20072;-79
2022/03/07 00:43:54;;;;;;;28.45;23.55;;;;;;;;;;5012163;28;20018;-79
2022/03/07 00:46:20;;;;;;;27.02;22.77;;;;;;;;;;5012032;28;20141;-79
2022/03/07 00:48:46;;;;;;;27.20;22.73;;;;;;;;;;4997975;28;20083;-79
2022/03/07 00:51:12;;;;;;;31.00;24.25;;;;;;;;;;5015158;28;20026;-79
2022/03/07 00:53:38;;;;;;;33.00;26.67;;;;;;;;;;5015310;28;20109;-79
2022/03/07 00:56:07;;;;;;;30.42;24.17;;;;;;;;;;5015260;28;20061;-79
2022/03/07 00:58:35;;;;;;;29.67;24.17;;;;;;;;;;5015396;28;20397;-79
2022/03/07 01:01:01;;;;;;;27.20;22.42;;;;;;;;;;5015297;28;20022;-78
2022/03/07 01:03:27;;;;;;;29.02;23.95;;;;;;;;;;5015394;28;20160;-78
2022/03/07 01:05:53;;;;;;;26.52;21.33;;;;;;;;;;5015286;28;20034;-78
2022/03/07 01:08:20;;;;;;;22.90;19.83;;;;;;;;;;4997450;28;20030;-79
2022/03/07 01:10:47;;;;;;;22.73;18.63;;;;;;;;;;5015176;28;20068;-79
2022/03/07 01:13:13;;;;;;;23.65;19.60;;;;;;;;;;5015029;28;20025;-78
2022/03/07 01:15:39;;;;;;;23.05;18.08;;;;;;;;;;5014832;28;20049;-78
2022/03/07 01:18:07;;;;;;;24.67;19.05;;;;;;;;;;5014875;28;20054;-78
2022/03/07 01:20:33;;;;;;;21.13;17.05;;;;;;;;;;5014937;28;20050;-79
2022/03/07 01:22:59;;;;;;;22.55;18.48;;;;;;;;;;4997437;28;20032;-78
2022/03/07 01:25:26;;;;;;;20.30;16.80;;;;;;;;;;4997278;28;20029;-78
2022/03/07 01:27:52;;;;;;;21.52;17.90;;;;;;;;;;5014683;28;20038;-78
2022/03/07 01:30:18;;;;;;;20.15;16.63;;;;;;;;;;5014666;28;20022;-79
2022/03/07 01:32:44;;;;;;;21.23;17.88;;;;;;;;;;4997165;28;20080;-78
2022/03/07 01:35:10;;;;;;;23.67;17.88;;;;;;;;;;5014672;28;20501;-78
2022/03/07 01:37:36;;;;;;;22.85;18.92;;;;;;;;;;5014584;28;20113;-78
2022/03/07 01:40:03;;;;;;;25.05;20.17;;;;;;;;;;5014735;28;20163;-78
2022/03/07 01:42:29;;;;;;;26.38;20.48;;;;;;;;;;5014414;28;20018;-77
2022/03/07 01:44:55;;;;;;;29.25;22.42;;;;;;;;;;5014506;28;20473;-78
2022/03/07 01:47:23;;;;;;;28.17;20.90;;;;;;;;;;5014250;28;20033;-78
2022/03/07 01:49:52;;;;;;;27.33;22.20;;;;;;;;;;5014484;28;20040;-78
2022/03/07 01:52:20;;;;;;;27.38;21.58;;;;;;;;;;4996749;28;20025;-79
2022/03/07 01:54:47;;;;;;;28.65;20.80;;;;;;;;;;5014444;28;20421;-78
2022/03/07 01:57:13;;;;;;;26.95;21.15;;;;;;;;;;5014219;28;20409;-77
2022/03/07 01:59:39;;;;;;;26.15;20.15;;;;;;;;;;5014127;28;20484;-79
2022/03/07 02:02:05;;;;;;;24.75;19.10;;;;;;;;;;5014334;28;20029;-80
2022/03/07 02:04:33;;;;;;;26.83;19.38;;;;;;;;;;5014056;28;20018;-78
2022/03/07 02:06:59;;;;;;;26.38;20.70;;;;;;;;;;5014112;28;20125;-78
2022/03/07 02:09:25;;;;;;;28.92;21.02;;;;;;;;;;5013901;28;20436;-78
2022/03/07 02:11:51;;;;;;;26.80;20.27;;;;;;;;;;5014104;28;20033;-78
2022/03/07 02:14:18;;;;;;;27.58;21.52;;;;;;;;;;5013671;28;20509;-78
2022/03/07 02:16:45;;;;;;;26.05;20.17;;;;;;;;;;5014031;28;20036;-78
2022/03/07 02:19:12;;;;;;;29.05;21.70;;;;;;;;;;5013717;28;20462;-78
2022/03/07 02:21:41;;;;;;;29.05;21.23;;;;;;;;;;5013768;28;20018;-79
2022/03/07 02:24:07;;;;;;;32.25;24.25;;;;;;;;;;5013855;28;20129;-78
2022/03/07 02:26:33;;;;;;;31.42;23.98;;;;;;;;;;5013450;28;20026;-78
2022/03/07 02:29:00;;;;;;;32.28;24.15;;;;;;;;;;5013736;28;20393;-78
2022/03/07 02:31:26;;;;;;;28.52;23.77;;;;;;;;;;5013478;28;20030;-79
2022/03/07 02:33:52;;;;;;;31.17;24.55;;;;;;;;;;5013625;28;20045;-79
2022/03/07 02:36:18;;;;;;;31.20;24.80;;;;;;;;;;5013425;28;20030;-78
2022/03/07 02:38:44;;;;;;;34.17;25.35;;;;;;;;;;5013357;28;20036;-79
2022/03/07 02:41:10;;;;;;;31.33;23.17;;;;;;;;;;5013543;28;20080;-78
2022/03/07 02:43:36;;;;;;;30.85;23.83;;;;;;;;;;5013235;28;20423;-78
2022/03/07 02:46:02;;;;;;;31.17;23.85;;;;;;;;;;5013412;28;20029;-78
2022/03/07 02:48:29;;;;;;;30.20;24.02;;;;;;;;;;5013084;28;20034;-78
2022/03/07 02:50:57;;;;;;;27.95;22.60;;;;;;;;;;5013322;28;20084;-79
2022/03/07 02:53:24;;;;;;;32.10;23.92;;;;;;;;;;5013129;28;20017;-79
2022/03/07 02:55:50;;;;;;;30.42;23.85;;;;;;;;;;5013249;28;20028;-78
2022/03/07 02:58:16;;;;;;;30.67;23.23;;;;;;;;;;5013237;28;20033;-79
2022/03/07 03:00:42;;;;;;;30.77;23.95;;;;;;;;;;5012938;28;20469;-79
2022/03/07 03:03:08;;;;;;;33.50;24.90;;;;;;;;;;5013115;28;20076;-78
2022/03/07 03:05:35;;;;;;;26.27;20.42;;;;;;;;;;5013249;28;20105;-79
2022/03/07 03:08:01;;;;;;;29.23;20.98;;;;;;;;;;5013046;28;20044;-79
2022/03/07 03:10:27;;;;;;;27.15;21.52;;;;;;;;;;5012568;28;20033;-79
2022/03/07 03:12:54;;;;;;;28.70;21.08;;;;;;;;;;5012763;28;20026;-79
2022/03/07 03:15:20;;;;;;;27.13;19.65;;;;;;;;;;5012941;28;20057;-79
2022/03/07 03:17:46;;;;;;;25.63;19.08;;;;;;;;;;5012760;28;20426;-79
2022/03/07 03:20:13;;;;;;;21.17;17.40;;;;;;;;;;5013007;28;20108;-78
2022/03/07 03:22:43;;;;;;;26.48;19.30;;;;;;;;;;5012672;28;20018;-79
2022/03/07 03:25:09;;;;;;;21.85;18.13;;;;;;;;;;5012827;28;20026;-78
2022/03/07 03:27:36;;;;;;;19.38;14.60;;;;;;;;;;4995087;28;20037;-78
2022/03/07 03:30:02;;;;;;;20.08;14.88;;;;;;;;;;5012795;28;20030;-79
2022/03/07 03:32:30;;;;;;;17.30;13.43;;;;;;;;;;4995124;28;20436;-78
2022/03/07 03:34:56;;;;;;;17.35;13.82;;;;;;;;;;5012724;28;20092;-79
2022/03/07 03:37:24;;;;;;;16.05;13.10;;;;;;;;;;5012388;28;20470;-78
2022/03/07 03:39:51;;;;;;;18.05;14.10;;;;;;;;;;5012565;28;20025;-79
2022/03/07 03:42:17;;;;;;;18.10;13.55;;;;;;;;;;5012783;28;20041;-78
2022/03/07 03:44:43;;;;;;;16.08;13.23;;;;;;;;;;5012450;28;20366;-79
2022/03/07 03:47:10;;;;;;;15.45;12.55;;;;;;;;;;5012576;28;20041;-78
2022/03/07 03:49:36;;;;;;;18.55;13.65;;;;;;;;;;5012290;28;20033;-78
2022/03/07 03:52:02;;;;;;;15.65;12.55;;;;;;;;;;5012596;28;20050;-78
2022/03/07 03:54:28;;;;;;;17.50;12.90;;;;;;;;;;5012640;28;20025;-79
2022/03/07 03:56:54;;;;;;;16.83;12.63;;;;;;;;;;5012260;28;20022;-78
2022/03/07 03:59:21;;;;;;;14.23;11.43;;;;;;;;;;5012524;28;20033;-78
2022/03/07 04:01:47;;;;;;;13.13;11.02;;;;;;;;;;5012325;28;20026;-79
2022/03/07 04:04:13;;;;;;;15.02;11.75;;;;;;;;;;5012368;28;20057;-79
2022/03/07 04:06:40;;;;;;;14.20;11.65;;;;;;;;;;5012160;28;20030;-79
2022/03/07 04:09:10;;;;;;;13.82;11.05;;;;;;;;;;5012389;28;20496;-78
2022/03/07 04:11:36;;;;;;;13.48;10.48;;;;;;;;;;4994575;28;20025;-78
2022/03/07 04:14:02;;;;;;;13.50;10.60;;;;;;;;;;5012395;28;20022;-78
2022/03/07 04:16:29;;;;;;;13.70;11.52;;;;;;;;;;4992695;28;20109;-79
2022/03/07 04:18:55;;;;;;;12.63;10.70;;;;;;;;;;4992384;28;20335;-79
2022/03/07 04:21:22;;;;;;;12.40;9.38;;;;;;;;;;4992885;28;20026;-79
2022/03/07 04:23:48;;;;;;;11.85;10.00;;;;;;;;;;4978901;28;20386;-79
2022/03/07 04:26:16;;;;;;;13.80;10.60;;;;;;;;;;4996370;28;20026;-79
2022/03/07 04:28:42;;;;;;;12.52;9.77;;;;;;;;;;4996226;28;20026;-80
2022/03/07 04:31:08;;;;;;;12.20;10.10;;;;;;;;;;4996333;28;20433;-80
2022/03/07 04:33:34;;;;;;;10.70;8.55;;;;;;;;;;4996173;28;20050;-79
2022/03/07 04:36:00;;;;;;;8.45;7.22;;;;;;;;;;4996047;28;20089;-81
2022/03/07 04:38:27;;;;;;;12.75;7.85;;;;;;;;;;4996306;28;20386;-79
2022/03/07 04:40:56;;;;;;;9.35;7.65;;;;;;;;;;4996027;28;20105;-79
2022/03/07 04:43:23;;;;;;;10.13;8.10;;;;;;;;;;4996248;28;20105;-79
2022/03/07 04:45:52;;;;;;;8.93;6.65;;;;;;;;;;4995931;28;20026;-79
2022/03/07 04:48:18;;;;;;;8.23;6.35;;;;;;;;;;4978392;28;20466;-78
2022/03/07 04:50:44;;;;;;;9.07;5.80;;;;;;;;;;4995814;28;20090;-79
2022/03/07 04:53:10;;;;;;;8.05;6.95;;;;;;;;;;4995634;28;20026;-80
2022/03/07 04:55:36;;;;;;;7.95;6.53;;;;;;;;;;4995105;28;20030;-78
2022/03/07 04:58:03;;;;;;;10.95;8.43;;;;;;;;;;4994844;28;20435;-78
2022/03/07 05:00:30;;;;;;;7.43;5.95;;;;;;;;;;4994527;28;20053;-79
2022/03/07 05:02:56;;;;;;;8.60;6.40;;;;;;;;;;4994977;28;20513;-81
2022/03/07 05:05:22;;;;;;;11.07;7.82;;;;;;;;;;4995278;28;20019;-79
2022/03/07 05:07:51;;;;;;;11.63;9.05;;;;;;;;;;4994823;28;20049;-80
2022/03/07 05:10:18;;;;;;;12.32;8.88;;;;;;;;;;4994901;28;20029;-79
2022/03/07 05:12:44;;;;;;;12.93;7.97;;;;;;;;;;4994814;28;20027;-79
2022/03/07 05:15:10;;;;;;;12.15;9.48;;;;;;;;;;5003835;28;20046;-79
2022/03/07 05:17:42;;;;;;;12.38;9.43;;;;;;;;;;5014331;28;20030;-79
2022/03/07 05:20:09;;;;;;;12.43;8.05;;;;;;;;;;5014192;28;20481;-79
2022/03/07 05:22:35;;;;;;;9.20;7.63;;;;;;;;;;5014405;28;20033;-82
2022/03/07 05:25:01;;;;;;;10.88;7.63;;;;;;;;;;5013885;28;20053;-82
2022/03/07 05:27:27;;;;;;;10.75;7.65;;;;;;;;;;5014046;28;20041;-83
2022/03/07 05:29:53;;;;;;;10.70;8.18;;;;;;;;;;5013803;28;20080;-80
2022/03/07 05:32:20;;;;;;;12.23;10.05;;;;;;;;;;5013844;28;20077;-81
2022/03/07 05:34:47;;;;;;;12.85;10.38;;;;;;;;;;5013834;28;20038;-79
2022/03/07 05:37:13;;;;;;;14.40;11.15;;;;;;;;;;5014099;28;20052;-78
2022/03/07 05:39:39;;;;;;;16.77;12.15;;;;;;;;;;5013729;28;20026;-79
2022/03/07 05:42:05;;;;;;;11.77;8.82;;;;;;;;;;4984866;28;20117;-79
2022/03/07 05:44:32;;;;;;;9.07;7.38;;;;;;;;;;5012365;28;20421;-78
2022/03/07 05:46:58;;;;;;;9.38;7.15;;;;;;;;;;4994849;28;20066;-79
2022/03/07 05:49:24;;;;;;;7.82;6.50;;;;;;;;;;5013837;28;20113;-80
2022/03/07 05:51:50;;;;;;;5.60;5.05;;;;;;;;;;5013050;28;20026;-80
2022/03/07 05:54:16;;;;;;;11.90;7.60;;;;;;;;;;4993085;28;20521;-80
2022/03/07 05:56:42;;;;;;;8.95;6.97;;;;;;;;;;5010379;28;20021;-80
2022/03/07 05:59:08;;;;;;;10.55;7.70;;;;;;;;;;5013803;28;20030;-79
2022/03/07 06:01:35;;;;;;;12.15;8.98;;;;;;;;;;5014263;28;20465;-79
2022/03/07 06:04:01;;;;;;;13.55;10.43;;;;;;;;;;5013487;28;20036;-79
2022/03/07 06:06:27;;;;;;;8.43;7.13;;;;;;;;;;5013651;28;20399;-78
2022/03/07 06:08:53;;;;;;;10.60;7.47;;;;;;;;;;5014092;28;20029;-80
2022/03/07 06:11:19;;;;;;;8.55;6.80;;;;;;;;;;4996185;28;20021;-81
2022/03/07 06:13:46;;;;;;;11.32;8.35;;;;;;;;;;5013901;28;20034;-80
2022/03/07 06:16:12;;;;;;;8.65;7.15;;;;;;;;;;5013349;28;20049;-79
2022/03/07 06:18:38;;;;;;;10.10;7.93;;;;;;;;;;5013850;28;20473;-79
2022/03/07 06:21:05;;;;;;;12.05;8.85;;;;;;;;;;5013381;28;20485;-79
2022/03/07 06:23:31;;;;;;;12.63;9.65;;;;;;;;;;5012941;28;20072;-79
2022/03/07 06:25:58;;;;;;;11.05;8.32;;;;;;;;;;4997567;28;20037;-79
2022/03/07 06:28:24;;;;;;;23.45;18.50;;;;;;;;;;4996089;28;20124;-82
2022/03/07 06:30:50;;;;;;;8.75;7.85;;;;;;;;;;5013444;28;20025;-81
2022/03/07 06:33:17;;;;;;;6.75;5.25;;;;;;;;;;5012731;28;20060;-80
2022/03/07 06:35:43;;;;;;;8.93;6.85;;;;;;;;;;5012970;28;20526;-80
2022/03/07 06:38:10;;;;;;;10.60;8.07;;;;;;;;;;5025991;28;20036;-81
2022/03/07 06:40:36;;;;;;;10.18;7.53;;;;;;;;;;5031566;28;20018;-81
2022/03/07 06:43:02;;;;;;;8.32;6.65;;;;;;;;;;5022786;28;20075;-81
2022/03/07 06:45:33;;;;;;;8.32;6.43;;;;;;;;;;5012222;28;20029;-83
2022/03/07 06:48:00;;;;;;;12.95;9.15;;;;;;;;;;5018869;28;20041;-80
2022/03/07 06:50:30;;;;;;;7.75;5.82;;;;;;;;;;5005337;28;20128;-82
2022/03/07 06:52:56;;;;;;;9.15;6.88;;;;;;;;;;5022552;28;20147;-77
2022/03/07 06:55:23;;;;;;;7.80;6.57;;;;;;;;;;5011708;28;20029;-76
2022/03/07 06:57:49;;;;;;;8.80;6.97;;;;;;;;;;5011047;28;20065;-76
2022/03/07 07:00:18;;;;;;;7.00;5.78;;;;;;;;;;5010235;28;20030;-80
2022/03/07 07:02:45;;;;;;;9.98;8.30;;;;;;;;;;4989937;28;20457;-80
2022/03/07 07:05:11;;;;;;;11.38;8.57;;;;;;;;;;5010759;28;20034;-82
2022/03/07 07:07:42;;;;;;;8.73;7.30;;;;;;;;;;5011204;28;20036;-83
2022/03/07 07:10:09;;;;;;;7.45;5.50;;;;;;;;;;4986574;28;20825;-81
2022/03/07 07:12:35;;;;;;;9.00;7.93;;;;;;;;;;4993835;28;20050;-79
2022/03/07 07:15:02;;;;;;;10.82;8.57;;;;;;;;;;5008069;28;20463;-79
2022/03/07 07:17:28;;;;;;;9.90;7.53;;;;;;;;;;5006477;28;20049;-83
2022/03/07 07:19:54;;;;;;;8.95;6.75;;;;;;;;;;4991105;28;20057;-75
2022/03/07 07:22:20;;;;;;;8.27;6.20;;;;;;;;;;5009517;28;20481;-80
2022/03/07 07:24:46;;;;;;;8.45;7.38;;;;;;;;;;5010951;28;20030;-82
2022/03/07 07:27:12;;;;;;;6.47;4.65;;;;;;;;;;5011168;28;20038;-77
2022/03/07 07:29:39;;;;;;;10.27;6.55;;;;;;;;;;4989795;28;20496;-76
2022/03/07 07:32:07;;;;;;;13.15;9.32;;;;;;;;;;4990705;28;20058;-83
2022/03/07 07:34:39;;;;;;;10.60;8.35;;;;;;;;;;5018346;28;20058;-84
2022/03/07 07:37:05;;;;;;;11.57;8.90;;;;;;;;;;5013862;28;20523;-81
2022/03/07 07:39:31;;;;;;;11.60;9.05;;;;;;;;;;4990732;28;20030;-82
2022/03/07 07:41:57;;;;;;;12.10;9.80;;;;;;;;;;5009953;28;20037;-80
2022/03/07 07:44:23;;;;;;;11.68;9.50;;;;;;;;;;5009527;28;20030;-82
2022/03/07 07:46:49;;;;;;;9.82;8.25;;;;;;;;;;5007292;28;20040;-84
2022/03/07 07:49:16;;;;;;;8.73;6.68;;;;;;;;;;4993465;28;20029;-82
2022/03/07 07:51:42;;;;;;;8.93;6.82;;;;;;;;;;5011162;28;20396;-83
2022/03/07 07:54:08;;;;;;;11.38;8.27;;;;;;;;;;4989968;28;20026;-81
2022/03/07 07:56:42;;;;;;;8.07;5.85;;;;;;;;;;4993477;28;20023;-82
2022/03/07 07:59:24;;;;;;;;;;;;;;;;;;;;;
2022/03/07 08:01:54;;;;;;;10.80;7.88;;;;;;;;;;5010306;28;20047;-84
2022/03/07 08:04:22;;;;;;;12.90;9.00;;;;;;;;;;4993693;28;20487;-83
2022/03/07 08:06:49;;;;;;;23.67;16.80;;;;;;;;;;5015282;28;20032;-81
2022/03/07 08:09:16;;;;;;;27.67;15.43;;;;;;;;;;5012859;28;20627;-74
2022/03/07 08:11:42;;;;;;;12.30;8.07;;;;;;;;;;4993501;28;20461;-80
2022/03/07 08:14:10;;;;;;;8.07;5.97;;;;;;;;;;4994761;28;20018;-84
2022/03/07 08:16:37;;;;;;;6.88;5.35;;;;;;;;;;4993701;28;20126;-82
2022/03/07 08:19:03;;;;;;;9.52;7.07;;;;;;;;;;4994822;28;20025;-82
2022/03/07 08:21:29;;;;;;;8.85;6.95;;;;;;;;;;4976298;28;20081;-83
2022/03/07 08:23:55;;;;;;;9.05;6.63;;;;;;;;;;5000769;28;20032;-80
2022/03/07 08:26:22;;;;;;;7.07;5.68;;;;;;;;;;5014411;28;20029;-79
2022/03/07 08:28:48;;;;;;;6.75;5.97;;;;;;;;;;5012877;28;20040;-81
2022/03/07 08:31:14;;;;;;;10.32;6.88;;;;;;;;;;5013805;28;20069;-77
2022/03/07 08:33:41;;;;;;;8.15;5.70;;;;;;;;;;5026183;28;20546;-82
2022/03/07 08:36:07;;;;;;;9.45;6.53;;;;;;;;;;5033521;28;20041;-79
2022/03/07 08:38:34;;;;;;;9.30;7.22;;;;;;;;;;5003510;28;20026;-79
2022/03/07 08:41:01;;;;;;;7.75;6.38;;;;;;;;;;5014142;28;20037;-80
2022/03/07 08:43:27;;;;;;;5.10;4.00;;;;;;;;;;5013493;28;20041;-81
2022/03/07 08:45:53;;;;;;;9.45;7.85;;;;;;;;;;5013655;28;20389;-79
2022/03/07 08:48:21;;;;;;;15.80;10.77;;;;;;;;;;5004132;28;20042;-82
2022/03/07 08:50:48;;;;;;;9.98;7.30;;;;;;;;;;4994586;28;20485;-79
2022/03/07 08:53:18;;;;;;;15.40;11.20;;;;;;;;;;4994220;28;20041;-81
2022/03/07 08:55:47;;;;;;;21.23;12.15;;;;;;;;;;4994388;28;20034;-80
2022/03/07 08:58:16;;;;;;;12.52;9.80;;;;;;;;;;5002357;28;20042;-81
2022/03/07 09:00:42;;;;;;;10.05;7.32;;;;;;;;;;5014003;28;20018;-82
2022/03/07 09:03:15;;;;;;;9.13;6.82;;;;;;;;;;5013732;28;20053;-82
2022/03/07 09:05:41;;;;;;;8.63;7.18;;;;;;;;;;4996296;28;20064;-81
2022/03/07 09:08:07;;;;;;;10.55;6.93;;;;;;;;;;4990116;28;20409;-81
2022/03/07 09:10:39;;;;;;;9.15;7.18;;;;;;;;;;4993686;28;20514;-83
2022/03/07 09:13:05;;;;;;;11.10;7.70;;;;;;;;;;4993954;28;20049;-76
2022/03/07 09:15:31;;;;;;;13.50;9.75;;;;;;;;;;4998721;28;20137;-80
2022/03/07 09:17:57;;;;;;;16.05;11.63;;;;;;;;;;5018998;28;20034;-67
2022/03/07 09:20:23;;;;;;;10.27;6.88;;;;;;;;;;5013865;28;20034;-80
2022/03/07 09:22:50;;;;;;;11.25;7.55;;;;;;;;;;5033175;28;20461;-74
2022/03/07 09:25:16;;;;;;;11.98;9.55;;;;;;;;;;5015253;28;20079;-79
2022/03/07 09:27:43;;;;;;;10.65;8.20;;;;;;;;;;5032687;28;20127;-80
2022/03/07 09:30:09;;;;;;;14.88;10.65;;;;;;;;;;5033129;28;20024;-82
2022/03/07 09:32:36;;;;;;;8.30;6.43;;;;;;;;;;5008612;28;20120;-79
2022/03/07 09:35:02;;;;;;;7.13;5.80;;;;;;;;;;5033005;28;20040;-82
2022/03/07 09:37:31;;;;;;;9.85;8.23;;;;;;;;;;5032484;28;20073;-85
2022/03/07 09:39:58;;;;;;;7.15;5.45;;;;;;;;;;5033012;28;20032;-79
2022/03/07 09:42:24;;;;;;;7.03;5.57;;;;;;;;;;5011040;28;20022;-76
2022/03/07 09:44:54;;;;;;;6.95;6.22;;;;;;;;;;5014016;28;20469;-82
2022/03/07 09:47:23;;;;;;;7.75;6.60;;;;;;;;;;5011918;28;20422;-80
2022/03/07 09:49:53;;;;;;;6.32;5.30;;;;;;;;;;5012539;28;20037;-82
2022/03/07 09:52:19;;;;;;;9.65;7.28;;;;;;;;;;4994109;28;20142;-85
2022/03/07 09:54:45;;;;;;;6.97;5.50;;;;;;;;;;4993567;28;20078;-80
2022/03/07 09:57:11;;;;;;;15.02;9.30;;;;;;;;;;4993666;28;20069;-85
2022/03/07 09:59:37;;;;;;;11.02;7.95;;;;;;;;;;4993424;28;20088;-84
2022/03/07 10:02:05;;;;;;;7.88;5.70;;;;;;;;;;4992463;28;20067;-79
2022/03/07 10:04:32;;;;;;;20.25;12.20;;;;;;;;;;5012497;28;20025;-77
2022/03/07 10:07:01;;;;;;;19.55;9.77;;;;;;;;;;5012472;28;20108;-77
2022/03/07 10:09:27;;;;;;;16.63;10.73;;;;;;;;;;5011395;28;20183;-77
2022/03/07 10:12:02;;;;;;;12.32;6.95;;;;;;;;;;5011231;28;20045;-79
2022/03/07 10:14:31;;;;;;;10.00;6.63;;;;;;;;;;5011666;28;20064;-80
2022/03/07 10:16:58;;;;;;;7.32;6.22;;;;;;;;;;5012379;28;20068;-82
2022/03/07 10:19:24;;;;;;;8.07;5.63;;;;;;;;;;5010814;28;20030;-77
2022/03/07 10:21:51;;;;;;;8.43;6.57;;;;;;;;;;5011632;28;20041;-81
2022/03/07 10:24:18;;;;;;;7.03;5.88;;;;;;;;;;5011852;28;20150;-81
2022/03/07 10:26:44;;;;;;;8.05;6.53;;;;;;;;;;5011862;28;20037;-81
2022/03/07 10:29:11;;;;;;;9.20;7.28;;;;;;;;;;5011200;28;20493;-80
2022/03/07 10:31:39;;;;;;;9.85;8.82;;;;;;;;;;5009945;28;20068;-82
2022/03/07 10:34:05;;;;;;;5.85;4.72;;;;;;;;;;5007572;28;20026;-79
2022/03/07 10:36:32;;;;;;;6.35;4.70;;;;;;;;;;5017453;28;20025;-82
2022/03/07 10:38:59;;;;;;;8.00;5.93;;;;;;;;;;5018231;28;20112;-78
2022/03/07 10:41:34;;;;;;;11.82;8.05;;;;;;;;;;5009702;28;20065;-79
2022/03/07 10:44:00;;;;;;;9.80;7.68;;;;;;;;;;5008109;28;20041;-80
2022/03/07 10:46:27;;;;;;;9.00;7.10;;;;;;;;;;5011898;28;20021;-81
2022/03/07 10:48:53;;;;;;;9.32;6.65;;;;;;;;;;5009988;28;20048;-82
2022/03/07 10:51:25;;;;;;;9.10;6.70;;;;;;;;;;5010970;28;20113;-82
2022/03/07 10:53:51;;;;;;;6.78;5.72;;;;;;;;;;4992500;28;20030;-81
2022/03/07 10:56:18;;;;;;;10.68;8.30;;;;;;;;;;5010886;28;20026;-78
2022/03/07 10:58:55;;;;;;;6.50;5.38;;;;;;;;;;5008619;28;20088;-82
2022/03/07 11:01:31;;;;;;;7.85;6.45;;;;;;;;;;5010835;28;20030;-81
2022/03/07 11:03:57;;;;;;;8.20;7.05;;;;;;;;;;5011244;28;20036;-83
2022/03/07 11:06:27;;;;;;;15.15;10.15;;;;;;;;;;5011360;28;20014;-81
2022/03/07 11:08:55;;;;;;;9.75;8.57;;;;;;;;;;5008912;28;20509;-79
2022/03/07 11:11:22;;;;;;;10.65;8.20;;;;;;;;;;5011928;28;20033;-80
2022/03/07 11:13:53;;;;;;;5.68;4.40;;;;;;;;;;5010003;28;20030;-83
2022/03/07 11:16:22;;;;;;;8.00;6.68;;;;;;;;;;5008786;28;20054;-80
2022/03/07 11:18:54;;;;;;;8.00;5.13;;;;;;;;;;5010943;28;20105;-81
2022/03/07 11:21:21;;;;;;;9.32;5.85;;;;;;;;;;5007963;28;20111;-80
2022/03/07 11:23:48;;;;;;;5.50;4.45;;;;;;;;;;4995186;28;20105;-80
2022/03/07 11:26:16;;;;;;;7.20;5.50;;;;;;;;;;5013136;28;20022;-68
2022/03/07 11:28:42;;;;;;;5.63;4.68;;;;;;;;;;4992527;28;20448;-82
2022/03/07 11:31:28;;;;;;;;;;;;;;;;;;;;;
2022/03/07 11:34:12;;;;;;;6.03;4.78;;;;;;;;;;5011602;28;20033;-82
2022/03/07 11:36:44;;;;;;;8.40;5.07;;;;;;;;;;5008550;28;20025;-85
2022/03/07 11:39:11;;;;;;;6.13;5.00;;;;;;;;;;5008634;28;20018;-81
2022/03/07 11:41:38;;;;;;;7.22;4.18;;;;;;;;;;5009757;28;20053;-74
2022/03/07 11:44:07;;;;;;;6.40;4.88;;;;;;;;;;5008984;28;20080;-81
2022/03/07 11:46:51;;;;;;;6.25;4.35;;;;;;;;;;5008431;28;20018;-78
2022/03/07 11:49:28;;;;;;;5.65;4.40;;;;;;;;;;5009016;28;20041;-78
2022/03/07 11:52:12;;;;;;;6.55;5.03;;;;;;;;;;5010139;28;20496;-81
2022/03/07 11:54:50;;;;;;;14.00;9.80;;;;;;;;;;5010277;28;20436;-83
2022/03/07 11:57:17;;;;;;;9.00;6.25;;;;;;;;;;5008180;28;20026;-82
2022/03/07 11:59:44;;;;;;;18.63;12.40;;;;;;;;;;5010404;28;20121;-80
2022/03/07 12:02:10;;;;;;;19.33;13.73;;;;;;;;;;5008728;28;20092;-79
2022/03/07 12:04:43;;;;;;;26.50;19.80;;;;;;;;;;4991454;28;20034;-81
2022/03/07 12:07:09;;;;;;;8.88;7.00;;;;;;;;;;5005377;28;20046;-80
2022/03/07 12:09:37;;;;;;;8.63;6.20;;;;;;;;;;5010681;28;20029;-80
2022/03/07 12:12:08;;;;;;;15.52;10.35;;;;;;;;;;5010268;28;20030;-80
2022/03/07 12:14:37;;;;;;;12.77;8.65;;;;;;;;;;5009106;28;20065;-79
2022/03/07 12:17:10;;;;;;;5.72;5.13;;;;;;;;;;5009517;28;20022;-80
2022/03/07 12:19:37;;;;;;;11.75;8.10;;;;;;;;;;5009873;28;20489;-79
2022/03/07 12:22:10;;;;;;;5.65;5.10;;;;;;;;;;4988107;28;20073;-80
2022/03/07 12:24:37;;;;;;;6.00;4.95;;;;;;;;;;5007977;28;20042;-78
2022/03/07 12:27:04;;;;;;;12.63;8.57;;;;;;;;;;5010592;28;20028;-78
2022/03/07 12:29:30;;;;;;;9.52;8.52;;;;;;;;;;5010484;28;20026;-81
2022/03/07 12:31:57;;;;;;;7.57;5.68;;;;;;;;;;5010864;28;20076;-78
2022/03/07 12:34:24;;;;;;;6.65;5.55;;;;;;;;;;5011062;28;20362;-81
2022/03/07 12:37:13;;;;;;;8.70;5.88;;;;;;;;;;4999463;28;20042;-81
2022/03/07 12:40:00;;;;;;;10.38;6.57;;;;;;;;;;5011993;28;20037;-80
2022/03/07 12:42:28;;;;;;;9.75;7.28;;;;;;;;;;5011552;28;20125;-78
2022/03/07 12:45:02;;;;;;;7.55;6.38;;;;;;;;;;5014057;28;20466;-80
2022/03/07 12:47:30;;;;;;;12.20;9.23;;;;;;;;;;5014975;28;20030;-78
2022/03/07 12:49:56;;;;;;;9.45;6.97;;;;;;;;;;5014969;28;20556;-78
2022/03/07 12:52:26;;;;;;;7.85;6.22;;;;;;;;;;5014776;28;20030;-78
2022/03/07 12:54:56;;;;;;;11.30;8.05;;;;;;;;;;5014487;28;20026;-83
2022/03/07 12:57:22;;;;;;;11.07;7.82;;;;;;;;;;4997593;28;20037;-81
2022/03/07 12:59:59;;;;;;;15.90;13.38;;;;;;;;;;5015627;28;20053;-78
2022/03/07 13:02:32;;;;;;;10.68;8.68;;;;;;;;;;5013263;28;20040;-80
2022/03/07 13:04:58;;;;;;;10.25;9.10;;;;;;;;;;5010522;28;20054;-81
2022/03/07 13:07:27;;;;;;;9.23;8.15;;;;;;;;;;5014978;28;20884;-83
2022/03/07 13:09:54;;;;;;;12.75;10.23;;;;;;;;;;4997484;28;20437;-83
2022/03/07 13:12:23;;;;;;;12.43;10.55;;;;;;;;;;5015431;28;20034;-80
2022/03/07 13:14:49;;;;;;;10.80;8.90;;;;;;;;;;4995790;28;20064;-77
2022/03/07 13:17:19;;;;;;;10.82;8.02;;;;;;;;;;5014448;28;20473;-81
2022/03/07 13:19:47;;;;;;;10.07;8.27;;;;;;;;;;5013007;28;20049;-78
2022/03/07 13:22:14;;;;;;;8.57;7.10;;;;;;;;;;5011993;28;20751;-81
2022/03/07 13:24:40;;;;;;;10.73;8.13;;;;;;;;;;4990378;28;20095;-81
2022/03/07 13:27:06;;;;;;;10.25;8.15;;;;;;;;;;5010968;28;20018;-80
2022/03/07 13:29:34;;;;;;;12.82;9.40;;;;;;;;;;4989255;28;20042;-82
2022/03/07 13:32:01;;;;;;;10.57;9.07;;;;;;;;;;5010411;28;20428;-79
2022/03/07 13:34:39;;;;;;;10.40;7.90;;;;;;;;;;5014333;28;20108;-84
2022/03/07 13:37:05;;;;;;;15.52;12.25;;;;;;;;;;5022907;28;20095;-81
2022/03/07 13:39:32;;;;;;;9.55;8.45;;;;;;;;;;5033570;28;20021;-71
2022/03/07 13:42:02;;;;;;;11.07;8.35;;;;;;;;;;5033702;28;20029;-79
2022/03/07 13:44:29;;;;;;;10.57;8.55;;;;;;;;;;5019945;28;20036;-80
2022/03/07 13:46:56;;;;;;;10.98;8.68;;;;;;;;;;5013283;28;20018;-82
2022/03/07 13:49:24;;;;;;;11.75;9.10;;;;;;;;;;5008814;28;20037;-81
2022/03/07 13:51:50;;;;;;;12.10;8.00;;;;;;;;;;5008217;28;20026;-83
2022/03/07 13:54:17;;;;;;;13.20;8.90;;;;;;;;;;5012624;28;20074;-81
2022/03/07 13:56:43;;;;;;;11.77;9.65;;;;;;;;;;5014579;28;20026;-80
2022/03/07 13:59:28;;;;;;;10.68;8.93;;;;;;;;;;5013907;28;20022;-84
2022/03/07 14:01:55;;;;;;;10.00;7.28;;;;;;;;;;5014746;28;20029;-82
2022/03/07 14:04:21;;;;;;;12.52;9.02;;;;;;;;;;5014728;28;20435;-80
2022/03/07 14:06:48;;;;;;;13.63;9.55;;;;;;;;;;5014308;28;20018;-83
2022/03/07 14:09:17;;;;;;;9.15;8.15;;;;;;;;;;5013837;28;20428;-81
2022/03/07 14:11:43;;;;;;;9.95;8.45;;;;;;;;;;5014456;28;20363;-83
2022/03/07 14:14:20;;;;;;;11.90;9.43;;;;;;;;;;5012942;28;20029;-85
2022/03/07 14:16:46;;;;;;;9.20;7.78;;;;;;;;;;4977024;28;20371;-83
2022/03/07 14:19:12;;;;;;;12.40;7.70;;;;;;;;;;4977291;28;20034;-81
2022/03/07 14:21:39;;;;;;;11.38;8.63;;;;;;;;;;4994172;28;20034;-83
2022/03/07 14:24:07;;;;;;;11.23;8.23;;;;;;;;;;4976199;28;20085;-84
2022/03/07 14:26:33;;;;;;;10.55;8.55;;;;;;;;;;4994108;28;20478;-84
2022/03/07 14:29:03;;;;;;;8.70;7.43;;;;;;;;;;4976378;28;20088;-82
2022/03/07 14:31:35;;;;;;;10.40;8.25;;;;;;;;;;4993700;28;20033;-83
2022/03/07 14:34:06;;;;;;;12.43;8.80;;;;;;;;;;4976394;28;20088;-81